Time;durP1;ratioP1;P1;durP2;ratioP2;P2;SDS_P1;SDS_P2;PMS_P1;PMS_P2;Temp;Humidity;BMP_temperature;BMP_pressure;BME280_temperature;BME280_humidity;BME280_pressure;Samples;Min_cycle;Max_cycle;Signal;HPM_P1;HPM_P2
2023/07/10 00:00:45;;;;;;;4.13;2.97;;;19.90;1.00;;;;;;5181538;28;20036;-69
2023/07/10 00:03:18;;;;;;;3.70;3.13;;;19.80;1.00;;;;;;5178125;28;20043;-68
2023/07/10 00:05:49;;;;;;;6.03;3.60;;;19.80;1.00;;;;;;5097464;29;20027;-70
2023/07/10 00:08:20;;;;;;;5.60;3.10;;;19.80;1.00;;;;;;5178646;28;20028;-69
2023/07/10 00:10:52;;;;;;;4.65;3.22;;;19.80;1.00;;;;;;5097377;29;20019;-69
2023/07/10 00:13:23;;;;;;;5.30;3.30;;;19.80;1.00;;;;;;5162443;28;20495;-68
2023/07/10 00:15:57;;;;;;;4.25;3.72;;;19.80;1.00;;;;;;5096193;29;20043;-67
2023/07/10 00:18:31;;;;;;;5.63;3.25;;;19.70;1.00;;;;;;5146252;28;20721;-69
2023/07/10 00:21:04;;;;;;;6.13;3.92;;;19.60;1.00;;;;;;5163114;28;20102;-67
2023/07/10 00:23:38;;;;;;;5.72;3.40;;;19.50;1.00;;;;;;5163581;28;20397;-68
2023/07/10 00:26:19;;;;;;;5.07;3.30;;;19.40;1.00;;;;;;5163270;28;20031;-68
2023/07/10 00:28:53;;;;;;;5.75;3.70;;;19.30;1.00;;;;;;5097015;28;20344;-70
2023/07/10 00:31:26;;;;;;;3.63;3.20;;;19.40;1.00;;;;;;5176938;28;20030;-69
2023/07/10 00:34:01;;;;;;;5.35;3.20;;;19.30;1.00;;;;;;5098092;29;20039;-70
2023/07/10 00:36:37;;;;;;;4.93;3.15;;;19.30;1.00;;;;;;5163347;28;20044;-69
2023/07/10 00:39:22;;;;;;;4.07;3.50;;;19.20;99.90;;;;;;5146846;28;20044;-69
2023/07/10 00:41:58;;;;;;;4.70;3.78;;;19.20;99.90;;;;;;5163574;28;20106;-67
2023/07/10 00:44:41;;;;;;;4.43;3.17;;;19.20;1.00;;;;;;5165264;28;20035;-69
2023/07/10 00:47:27;;;;;;;4.38;3.35;;;19.10;1.00;;;;;;5085739;28;20031;-69
2023/07/10 00:50:08;;;;;;;3.80;3.15;;;19.20;1.00;;;;;;5150066;28;20032;-69
2023/07/10 00:52:46;;;;;;;3.92;3.00;;;19.10;1.00;;;;;;5163761;28;20062;-68
2023/07/10 00:55:31;;;;;;;3.50;3.20;;;19.10;26.00;;;;;;5097072;29;20679;-70
2023/07/10 00:58:25;;;;;;;5.07;3.40;;;18.90;99.90;;;;;;5150995;28;20049;-68
2023/07/10 01:01:05;;;;;;;3.83;3.28;;;18.90;99.90;;;;;;5141801;22;20032;-87
2023/07/10 01:03:44;;;;;;;6.15;2.83;;;18.80;1.00;;;;;;5230543;28;20040;-88
2023/07/10 01:06:30;;;;;;;5.85;3.75;;;18.90;1.00;;;;;;5232810;28;20033;-88
2023/07/10 01:09:09;;;;;;;4.50;3.00;;;18.90;1.00;;;;;;5247426;28;20029;-87
2023/07/10 01:11:45;;;;;;;3.83;3.33;;;18.80;1.00;;;;;;5230240;28;20096;-86
2023/07/10 01:14:17;;;;;;;5.28;2.88;;;18.70;1.00;;;;;;5231684;28;20314;-87
2023/07/10 01:16:50;;;;;;;3.78;3.42;;;18.70;1.00;;;;;;5231249;28;20032;-86
2023/07/10 01:19:24;;;;;;;4.25;3.80;;;18.60;6.10;;;;;;5164811;28;20032;-87
2023/07/10 01:22:01;;;;;;;5.25;4.35;;;18.60;19.70;;;;;;5180629;28;20024;-87
2023/07/10 01:24:38;;;;;;;5.50;3.33;;;18.60;51.50;;;;;;5234039;28;20038;-87
2023/07/10 01:27:12;;;;;;;4.53;3.28;;;18.60;1.00;;;;;;5228835;28;20038;-88
2023/07/10 01:29:56;;;;;;;5.00;3.40;;;18.60;1.00;;;;;;5214525;28;20033;-86
2023/07/10 01:32:34;;;;;;;3.95;3.55;;;18.50;1.00;;;;;;5266268;28;20028;-88
2023/07/10 01:35:13;;;;;;;5.80;3.42;;;18.50;1.00;;;;;;5232308;28;20020;-87
2023/07/10 01:37:49;;;;;;;4.38;3.45;;;18.60;1.00;;;;;;5232280;28;20043;-86
2023/07/10 01:40:33;;;;;;;5.78;3.90;;;18.50;1.00;;;;;;5248138;28;20311;-86
2023/07/10 01:43:12;;;;;;;5.75;4.15;;;18.50;1.00;;;;;;5232004;28;20028;-87
2023/07/10 01:45:51;;;;;;;5.75;4.00;;;18.50;1.00;;;;;;5248272;28;20035;-87
2023/07/10 01:48:32;;;;;;;4.93;3.35;;;18.50;1.00;;;;;;5230020;28;20028;-86
2023/07/10 01:54:17;;;;;;;4.85;3.25;;;18.50;1.00;;;;;;5246504;28;20006;-86
2023/07/10 01:56:50;;;;;;;4.63;3.55;;;18.40;1.00;;;;;;5231338;28;20032;-86
2023/07/10 01:59:22;;;;;;;5.45;3.63;;;18.40;1.00;;;;;;5246375;28;20024;-87
2023/07/10 02:02:15;;;;;;;6.55;4.43;;;18.40;82.20;;;;;;5239752;28;20210;-88
2023/07/10 02:04:47;;;;;;;3.83;3.03;;;18.30;99.90;;;;;;5231457;28;20039;-87
2023/07/10 02:07:18;;;;;;;4.90;3.83;;;18.30;99.90;;;;;;5231013;28;20036;-86
2023/07/10 02:09:56;;;;;;;4.45;3.80;;;18.30;99.90;;;;;;5229871;28;20038;-87
2023/07/10 02:12:28;;;;;;;4.57;3.58;;;18.20;99.90;;;;;;5231200;28;20054;-86
2023/07/10 02:15:03;;;;;;;6.45;4.28;;;18.30;99.90;;;;;;5230378;28;20344;-87
2023/07/10 02:17:43;;;;;;;3.45;3.15;;;18.20;99.90;;;;;;5230954;28;20038;-86
2023/07/10 02:20:24;;;;;;;6.05;3.42;;;18.20;99.90;;;;;;5248011;28;20028;-87
2023/07/10 02:23:04;;;;;;;4.37;3.67;;;18.10;99.90;;;;;;5234254;28;20028;-87
2023/07/10 02:29:05;;;;;;;4.03;2.80;;;18.10;24.90;;;;;;5275670;28;20024;-86
2023/07/10 02:31:39;;;;;;;4.55;3.55;;;18.10;6.60;;;;;;5236907;28;20032;-87
2023/07/10 02:34:12;;;;;;;3.83;3.22;;;18.10;53.40;;;;;;5235610;28;20194;-87
2023/07/10 02:36:56;;;;;;;4.10;3.10;;;18.10;1.00;;;;;;5239222;28;20028;-87
2023/07/10 02:39:30;;;;;;;5.55;3.15;;;18.00;91.30;;;;;;5238767;28;20028;-87
2023/07/10 02:42:04;;;;;;;6.68;2.72;;;18.00;99.90;;;;;;5238851;28;20035;-87
2023/07/10 02:44:38;;;;;;;5.40;3.45;;;18.00;99.90;;;;;;5220392;28;20025;-87
2023/07/10 02:47:39;;;;;;;4.55;3.55;;;18.10;99.90;;;;;;5234476;28;20047;-86
2023/07/10 02:50:38;;;;;;;5.20;3.70;;;18.10;99.90;;;;;;5250848;28;20043;-88
2023/07/10 02:53:38;;;;;;;4.80;3.63;;;18.10;99.90;;;;;;5249742;28;20031;-86
2023/07/10 02:56:13;;;;;;;6.18;3.42;;;18.10;99.90;;;;;;5254185;28;20028;-87
2023/07/10 02:59:05;;;;;;;4.65;3.35;;;18.10;99.90;;;;;;5240762;28;20039;-87
2023/07/10 03:01:39;;;;;;;5.03;3.83;;;18.00;99.90;;;;;;5276774;28;20036;-87
2023/07/10 03:04:13;;;;;;;3.97;3.15;;;18.00;99.90;;;;;;5241351;28;20044;-87
2023/07/10 03:06:53;;;;;;;4.68;3.40;;;17.90;99.90;;;;;;5236727;28;20035;-87
2023/07/10 03:09:25;;;;;;;4.18;3.58;;;18.00;99.90;;;;;;5221357;28;20033;-88
2023/07/10 03:12:12;;;;;;;4.70;3.22;;;18.00;99.90;;;;;;5239803;28;20020;-88
2023/07/10 03:14:51;;;;;;;4.55;3.47;;;18.00;99.90;;;;;;5260748;28;20028;-88
2023/07/10 03:17:26;;;;;;;4.82;3.35;;;18.00;99.90;;;;;;5216974;22;20045;-69
2023/07/10 03:20:00;;;;;;;5.65;3.70;;;18.00;99.90;;;;;;5200720;28;20526;-70
2023/07/10 03:22:33;;;;;;;4.45;3.38;;;18.00;99.90;;;;;;5200249;28;20282;-69
2023/07/10 03:25:05;;;;;;;8.45;3.63;;;18.10;48.40;;;;;;5202618;28;20017;-68
2023/07/10 03:27:38;;;;;;;4.25;2.90;;;18.10;1.00;;;;;;5201149;28;20565;-69
2023/07/10 03:30:10;;;;;;;3.30;2.72;;;18.20;1.00;;;;;;5181525;28;20041;-67
2023/07/10 03:32:41;;;;;;;3.85;3.47;;;18.20;14.30;;;;;;5200311;28;20039;-69
2023/07/10 03:35:15;;;;;;;4.30;3.70;;;18.30;99.90;;;;;;5200459;28;20041;-70
2023/07/10 03:37:49;;;;;;;3.58;3.08;;;18.30;1.00;;;;;;5199831;28;20376;-70
2023/07/10 03:40:20;;;;;;;4.18;3.40;;;18.30;1.00;;;;;;5184642;28;20033;-70
2023/07/10 03:42:52;;;;;;;4.93;3.58;;;18.30;1.00;;;;;;5199989;28;20042;-69
2023/07/10 03:45:23;;;;;;;4.90;3.60;;;18.40;1.00;;;;;;5198988;28;20130;-70
2023/07/10 03:47:54;;;;;;;3.38;3.08;;;18.70;1.00;;;;;;5201560;28;20029;-67
2023/07/10 03:50:30;;;;;;;4.03;3.30;;;18.80;1.00;;;;;;5199304;28;20245;-68
2023/07/10 03:53:02;;;;;;;3.28;2.97;;;19.00;99.90;;;;;;5184225;28;20037;-69
2023/07/10 03:55:33;;;;;;;6.82;3.25;;;19.20;99.90;;;;;;5196569;28;20033;-69
2023/07/10 03:58:23;;;;;;;4.35;3.50;;;19.30;1.00;;;;;;5200105;28;20030;-68
2023/07/10 04:00:55;;;;;;;5.75;2.92;;;19.60;1.00;;;;;;5180580;28;20206;-68
2023/07/10 04:03:29;;;;;;;5.30;3.20;;;19.90;99.90;;;;;;5192068;28;20121;-69
2023/07/10 04:06:02;;;;;;;3.63;2.78;;;20.10;1.00;;;;;;5201160;28;20041;-67
2023/07/10 04:08:39;;;;;;;5.20;2.95;;;20.40;1.00;;;;;;5183812;28;20348;-68
2023/07/10 04:11:19;;;;;;;4.32;3.30;;;20.60;99.90;;;;;;5183968;28;20033;-69
2023/07/10 04:13:51;;;;;;;3.28;2.80;;;20.90;1.00;;;;;;5199661;28;20038;-69
2023/07/10 04:16:25;;;;;;;6.30;2.97;;;21.20;1.00;;;;;;5212368;28;20045;-70
2023/07/10 04:18:56;;;;;;;;;;;21.40;99.90;;;;;;5201311;28;20432;-68
2023/07/10 04:21:31;;;;;;;5.00;3.05;;;21.60;99.90;;;;;;5198170;28;19919;-69
2023/07/10 04:24:12;;;;;;;3.92;3.13;;;21.70;99.90;;;;;;5199884;28;20179;-70
2023/07/10 04:26:46;;;;;;;3.35;2.70;;;21.70;61.40;;;;;;5199375;28;20041;-71
2023/07/10 04:29:20;;;;;;;3.95;3.22;;;21.90;24.70;;;;;;5188832;28;20041;-69
2023/07/10 04:31:54;;;;;;;3.47;3.05;;;22.00;1.00;;;;;;5187502;28;20315;-67
2023/07/10 04:34:26;;;;;;;3.63;2.78;;;22.10;1.00;;;;;;5184492;28;20037;-68
2023/07/10 04:36:58;;;;;;;3.45;2.72;;;22.40;1.00;;;;;;5178537;28;20444;-69
2023/07/10 04:39:31;;;;;;;6.15;2.90;;;22.60;1.00;;;;;;5178711;28;20137;-70
2023/07/10 04:42:03;;;;;;;4.68;2.90;;;22.60;1.00;;;;;;5180317;28;20395;-69
2023/07/10 04:44:36;;;;;;;4.25;3.25;;;22.70;99.90;;;;;;5161998;28;20041;-69
2023/07/10 04:47:08;;;;;;;;;;;23.00;99.90;;;;;;5177349;28;20030;-69
2023/07/10 04:49:39;;;;;;;4.35;2.80;;;23.10;99.90;;;;;;5195067;28;19940;-68
2023/07/10 04:52:11;;;;;;;3.13;2.58;;;23.00;99.90;;;;;;5190554;28;20025;-70
2023/07/10 04:54:42;;;;;;;3.42;2.45;;;23.20;99.90;;;;;;5200993;28;20041;-69
2023/07/10 04:57:16;;;;;;;2.78;2.47;;;23.30;99.90;;;;;;5180421;28;20352;-69
2023/07/10 04:59:47;;;;;;;3.65;2.72;;;23.60;99.90;;;;;;5179805;28;20039;-69
2023/07/10 05:02:24;;;;;;;4.05;2.72;;;23.80;99.90;;;;;;5186744;28;20255;-69
2023/07/10 05:04:55;;;;;;;3.30;2.63;;;24.10;51.10;;;;;;5198061;28;20033;-68
2023/07/10 05:07:27;;;;;;;5.68;3.22;;;24.40;1.00;;;;;;5201216;28;20209;-68
2023/07/10 05:10:00;;;;;;;2.95;2.60;;;24.40;1.00;;;;;;5198335;28;20025;-69
2023/07/10 05:12:33;;;;;;;3.83;2.67;;;24.30;1.00;;;;;;5199365;28;20197;-69
2023/07/10 05:15:05;;;;;;;3.00;2.70;;;23.90;1.00;;;;;;5197987;28;20041;-68
2023/07/10 05:17:39;;;;;;;4.53;3.45;;;24.00;1.00;;;;;;5199200;28;20310;-68
2023/07/10 05:20:10;;;;;;;4.72;3.00;;;24.20;1.00;;;;;;5198227;28;20043;-69
2023/07/10 05:22:41;;;;;;;3.80;2.83;;;24.50;1.00;;;;;;5195983;28;20029;-69
2023/07/10 05:25:13;;;;;;;3.50;2.88;;;24.90;1.00;;;;;;5165102;28;20045;-68
2023/07/10 05:27:47;;;;;;;4.18;2.60;;;25.30;1.00;;;;;;5200031;28;20037;-68
2023/07/10 05:30:23;;;;;;;3.25;2.88;;;25.70;1.00;;;;;;5178604;28;20210;-68
2023/07/10 05:32:54;;;;;;;5.35;3.10;;;26.00;99.90;;;;;;5198440;28;20044;-69
2023/07/10 05:35:28;;;;;;;4.03;2.40;;;26.20;1.00;;;;;;5198493;28;20303;-71
2023/07/10 05:38:01;;;;;;;4.57;2.83;;;26.40;1.00;;;;;;5199103;28;20067;-69
2023/07/10 05:40:35;;;;;;;4.40;3.08;;;26.20;1.00;;;;;;5215356;28;20037;-68
2023/07/10 05:43:09;;;;;;;4.72;3.05;;;26.20;1.00;;;;;;5215504;28;20041;-68
2023/07/10 05:45:41;;;;;;;2.95;2.55;;;26.30;1.00;;;;;;5193148;28;20025;-68
2023/07/10 05:48:12;;;;;;;5.22;3.08;;;26.50;1.00;;;;;;5197836;28;20029;-68
2023/07/10 05:50:45;;;;;;;4.20;2.78;;;26.80;1.00;;;;;;5200068;28;20029;-69
2023/07/10 05:53:17;;;;;;;3.47;2.25;;;27.10;1.00;;;;;;5196136;28;20395;-68
2023/07/10 05:55:51;;;;;;;5.97;2.70;;;27.40;1.00;;;;;;5199637;28;20017;-69
2023/07/10 05:58:27;;;;;;;3.30;3.00;;;27.90;1.00;;;;;;5214974;28;20060;-69
2023/07/10 06:01:00;;;;;;;3.92;2.78;;;28.20;1.00;;;;;;5196212;28;20071;-70
2023/07/10 06:03:33;;;;;;;3.63;3.17;;;28.40;1.00;;;;;;5193691;28;20322;-69
2023/07/10 06:06:09;;;;;;;3.95;2.90;;;28.50;1.00;;;;;;5204059;28;20364;-69
2023/07/10 06:08:40;;;;;;;3.72;2.92;;;28.40;1.00;;;;;;5201816;28;20048;-69
2023/07/10 06:11:15;;;;;;;4.95;3.08;;;28.40;1.00;;;;;;5205895;28;20029;-68
2023/07/10 06:13:51;;;;;;;4.07;2.88;;;28.30;1.00;;;;;;5196937;28;20297;-71
2023/07/10 06:16:25;;;;;;;3.30;3.00;;;28.40;1.00;;;;;;5152863;28;20061;-69
2023/07/10 06:19:02;;;;;;;4.25;3.42;;;28.60;1.00;;;;;;5086646;28;20354;-70
2023/07/10 06:21:34;;;;;;;4.07;2.80;;;28.80;1.00;;;;;;5103351;28;20148;-72
2023/07/10 06:24:06;;;;;;;4.28;2.88;;;28.90;1.00;;;;;;5120576;28;20027;-68
2023/07/10 06:26:40;;;;;;;4.65;3.17;;;29.00;1.00;;;;;;5103158;28;20035;-69
2023/07/10 06:29:20;;;;;;;4.20;3.13;;;29.30;1.00;;;;;;5219296;28;20029;-70
2023/07/10 06:31:54;;;;;;;3.17;2.72;;;29.60;99.90;;;;;;5171018;28;20036;-69
2023/07/10 06:34:27;;;;;;;6.28;3.10;;;29.80;99.90;;;;;;5170718;28;20395;-69
2023/07/10 06:37:01;;;;;;;3.35;3.05;;;30.20;99.90;;;;;;5118405;29;20030;-69
2023/07/10 06:39:32;;;;;;;3.42;2.60;;;30.40;99.90;;;;;;5101185;29;20040;-70
2023/07/10 06:42:04;;;;;;;4.43;3.13;;;30.70;99.90;;;;;;5120089;29;20046;-69
2023/07/10 06:44:37;;;;;;;3.47;3.17;;;31.10;99.90;;;;;;5120219;29;20036;-69
2023/07/10 06:47:08;;;;;;;4.72;3.40;;;31.30;99.90;;;;;;5116969;28;20015;-68
2023/07/10 06:49:45;;;;;;;5.00;3.30;;;31.70;99.90;;;;;;5086362;29;20104;-70
2023/07/10 06:52:16;;;;;;;3.40;3.10;;;32.10;99.90;;;;;;5119874;29;20185;-70
2023/07/10 06:54:50;;;;;;;4.28;2.90;;;32.20;99.90;;;;;;5086716;29;20047;-69
2023/07/10 06:57:21;;;;;;;3.25;2.97;;;32.50;99.90;;;;;;5121061;28;20039;-69
2023/07/10 06:59:55;;;;;;;4.68;3.30;;;32.50;99.90;;;;;;5098597;29;20039;-68
2023/07/10 07:02:28;;;;;;;;;;;32.40;99.90;;;;;;5111066;29;20129;-70
2023/07/10 07:05:04;;;;;;;3.92;3.30;;;32.40;99.90;;;;;;5118636;28;19903;-69
2023/07/10 07:07:41;;;;;;;5.22;3.50;;;32.50;99.90;;;;;;5101206;29;20030;-69
2023/07/10 07:10:13;;;;;;;4.60;3.03;;;32.40;99.90;;;;;;5090734;29;20045;-70
2023/07/10 07:12:47;;;;;;;3.70;3.00;;;32.50;99.90;;;;;;5186176;28;20178;-68
2023/07/10 07:15:19;;;;;;;4.22;3.25;;;32.80;99.90;;;;;;5115255;28;20191;-70
2023/07/10 07:17:50;;;;;;;3.92;2.90;;;33.10;99.90;;;;;;5118158;28;20216;-69
2023/07/10 07:20:24;;;;;;;3.92;3.03;;;33.30;99.90;;;;;;5223730;28;20031;-71
2023/07/10 07:23:01;;;;;;;4.15;2.83;;;33.60;99.90;;;;;;5201883;28;20020;-69
2023/07/10 07:25:35;;;;;;;5.20;3.75;;;33.70;99.90;;;;;;5120496;29;20035;-69
2023/07/10 07:28:10;;;;;;;3.90;3.28;;;33.50;99.90;;;;;;5191513;28;20025;-69
2023/07/10 07:30:47;;;;;;;3.60;3.13;;;33.50;99.90;;;;;;5203951;28;20455;-69
2023/07/10 07:33:19;;;;;;;3.63;3.10;;;33.60;99.90;;;;;;5224855;28;20128;-69
2023/07/10 07:35:51;;;;;;;3.70;2.70;;;33.70;99.90;;;;;;5119399;29;20039;-70
2023/07/10 07:38:22;;;;;;;4.65;3.45;;;34.10;99.90;;;;;;5205856;28;20039;-69
2023/07/10 07:40:56;;;;;;;4.75;3.20;;;34.10;99.90;;;;;;5224388;28;20029;-69
2023/07/10 07:43:28;;;;;;;4.43;3.10;;;34.30;99.90;;;;;;5224474;28;20468;-68
2023/07/10 07:46:00;;;;;;;4.55;3.33;;;34.70;99.90;;;;;;5188128;28;20041;-70
2023/07/10 07:48:36;;;;;;;6.28;2.92;;;34.90;72.60;;;;;;5223815;28;20017;-69
2023/07/10 07:51:10;;;;;;;3.95;2.95;;;34.90;94.50;;;;;;5200402;28;20036;-69
2023/07/10 07:53:44;;;;;;;7.18;3.50;;;35.00;99.90;;;;;;5224129;28;20623;-71
2023/07/10 07:56:21;;;;;;;5.28;3.00;;;34.80;61.60;;;;;;5205095;28;20032;-69
2023/07/10 07:58:52;;;;;;;5.50;2.95;;;34.90;1.00;;;;;;5219502;28;20405;-68
2023/07/10 08:01:26;;;;;;;3.72;3.30;;;35.20;48.70;;;;;;5217516;28;20029;-69
2023/07/10 08:04:00;;;;;;;3.60;3.03;;;35.20;81.70;;;;;;5204226;28;20033;-70
2023/07/10 08:06:33;;;;;;;3.88;3.15;;;35.50;99.90;;;;;;5220954;28;20041;-70
2023/07/10 08:09:04;;;;;;;4.30;3.00;;;35.30;8.40;;;;;;5207129;28;20450;-70
2023/07/10 08:11:36;;;;;;;7.28;3.95;;;35.80;52.50;;;;;;5206924;28;20043;-69
2023/07/10 08:14:11;;;;;;;6.35;3.30;;;36.20;81.20;;;;;;5224388;28;20043;-70
2023/07/10 08:16:42;;;;;;;3.95;3.55;;;36.60;72.80;;;;;;5184482;28;20051;-68
2023/07/10 08:19:14;;;;;;;4.95;3.03;;;35.90;93.20;;;;;;5120475;29;20490;-68
2023/07/10 08:21:46;;;;;;;4.25;3.50;;;35.90;29.60;;;;;;5119589;29;20035;-68
2023/07/10 08:24:18;;;;;;;3.78;3.22;;;35.90;81.30;;;;;;5111592;28;20054;-69
2023/07/10 08:26:51;;;;;;;4.20;3.45;;;36.40;56.70;;;;;;5118744;29;20436;-68
2023/07/10 08:29:31;;;;;;;4.05;3.22;;;36.80;86.80;;;;;;5202790;28;20043;-69
2023/07/10 08:32:05;;;;;;;4.18;3.58;;;37.30;43.10;;;;;;5216392;28;20244;-68
2023/07/10 08:34:37;;;;;;;4.00;3.30;;;37.20;99.90;;;;;;5206391;28;20035;-70
2023/07/10 08:37:11;;;;;;;5.43;3.90;;;36.60;99.90;;;;;;5206406;28;20039;-68
2023/07/10 08:39:42;;;;;;;4.25;3.50;;;36.50;99.90;;;;;;5222837;28;20463;-69
2023/07/10 08:42:28;;;;;;;5.50;3.88;;;36.80;99.90;;;;;;5223783;28;20086;-70
2023/07/10 08:45:03;;;;;;;4.03;3.40;;;37.00;99.90;;;;;;5205451;28;20356;-69
2023/07/10 08:47:39;;;;;;;4.20;3.33;;;36.80;99.90;;;;;;5206968;28;20037;-68
2023/07/10 08:50:22;;;;;;;5.28;3.38;;;36.20;99.90;;;;;;5188806;28;20040;-69
2023/07/10 08:53:10;;;;;;;4.00;3.47;;;36.80;99.90;;;;;;5208330;28;20035;-70
2023/07/10 08:56:03;;;;;;;4.18;3.10;;;37.50;99.90;;;;;;5202953;28;20503;-69
2023/07/10 08:58:37;;;;;;;4.60;3.78;;;37.80;70.40;;;;;;5217351;28;20021;-70
2023/07/10 09:01:34;;;;;;;4.32;3.67;;;37.10;90.70;;;;;;5208761;28;20031;-70
2023/07/10 09:04:09;;;;;;;4.30;3.80;;;37.40;99.90;;;;;;5213218;28;20351;-69
2023/07/10 09:06:48;;;;;;;4.25;3.65;;;37.10;42.70;;;;;;5224843;28;20033;-68
2023/07/10 09:09:40;;;;;;;4.88;3.65;;;36.90;94.50;;;;;;5103249;29;20028;-70
2023/07/10 09:12:21;;;;;;;3.83;3.40;;;37.40;1.00;;;;;;5103004;29;20039;-71
2023/07/10 09:15:01;;;;;;;5.57;3.00;;;38.10;4.90;;;;;;5115035;29;20047;-70
2023/07/10 09:18:00;;;;;;;4.07;3.67;;;38.90;91.60;;;;;;5097242;28;20047;-70
2023/07/10 09:20:31;;;;;;;4.18;3.50;;;38.90;99.90;;;;;;5098519;28;20035;-72
2023/07/10 09:23:15;;;;;;;5.55;3.78;;;39.30;94.00;;;;;;5086735;29;20035;-69
2023/07/10 09:25:58;;;;;;;4.43;3.55;;;38.80;99.90;;;;;;5169213;28;20029;-70
2023/07/10 09:28:34;;;;;;;4.43;3.38;;;39.20;99.90;;;;;;5215035;28;20035;-69
2023/07/10 09:31:08;;;;;;;3.50;3.20;;;40.00;90.50;;;;;;5196729;28;20338;-70
2023/07/10 09:34:01;;;;;;;3.88;3.58;;;40.40;99.50;;;;;;5201109;28;20031;-70
2023/07/10 09:36:33;;;;;;;4.10;3.38;;;40.80;4.90;;;;;;5184742;28;20383;-70
2023/07/10 09:39:07;;;;;;;3.30;2.88;;;40.40;1.00;;;;;;5116544;28;20079;-69
2023/07/10 09:41:43;;;;;;;5.07;4.22;;;40.70;96.50;;;;;;5102286;28;20347;-70
2023/07/10 09:44:17;;;;;;;3.67;3.17;;;40.90;1.00;;;;;;5118974;29;20613;-69
2023/07/10 09:46:49;;;;;;;2.90;2.67;;;41.00;99.90;;;;;;5117902;29;20023;-69
2023/07/10 09:49:26;;;;;;;3.03;2.72;;;41.00;99.90;;;;;;5223555;28;20029;-70
2023/07/10 09:52:00;;;;;;;3.10;2.75;;;41.10;99.90;;;;;;5189394;28;20067;-68
2023/07/10 09:54:41;;;;;;;3.33;2.97;;;40.20;99.90;;;;;;5204836;28;20032;-72
2023/07/10 09:57:20;;;;;;;3.28;2.85;;;38.50;99.90;;;;;;5171711;28;20054;-70
2023/07/10 09:59:59;;;;;;;3.60;3.13;;;38.00;99.90;;;;;;5116318;28;20027;-70
2023/07/10 10:02:42;;;;;;;3.85;2.97;;;37.60;99.90;;;;;;5180043;28;20259;-71
2023/07/10 10:05:19;;;;;;;3.75;2.88;;;37.00;99.90;;;;;;5122928;28;20027;-69
2023/07/10 10:07:52;;;;;;;2.60;2.28;;;36.60;99.90;;;;;;5185164;28;20043;-71
2023/07/10 10:10:30;;;;;;;2.87;2.57;;;36.60;99.90;;;;;;5168500;28;20454;-69
2023/07/10 10:13:20;;;;;;;2.92;2.65;;;36.20;99.90;;;;;;5184921;28;20265;-72
2023/07/10 10:16:06;;;;;;;4.05;2.42;;;36.00;99.90;;;;;;5167025;28;20221;-69
2023/07/10 10:18:53;;;;;;;2.97;2.67;;;35.90;99.90;;;;;;5119171;29;20033;-68
2023/07/10 10:21:26;;;;;;;3.65;2.88;;;36.80;99.90;;;;;;5185050;28;20229;-71
2023/07/10 10:24:07;;;;;;;3.67;2.67;;;36.80;99.90;;;;;;5115372;28;20509;-71
2023/07/10 10:26:55;;;;;;;3.47;3.15;;;36.80;99.90;;;;;;5202335;28;20028;-71
2023/07/10 10:29:45;;;;;;;3.10;2.45;;;36.60;99.90;;;;;;5197105;28;20037;-70
2023/07/10 10:32:33;;;;;;;4.30;2.42;;;36.70;99.90;;;;;;5192053;28;20240;-68
2023/07/10 10:35:19;;;;;;;3.33;3.03;;;36.70;99.90;;;;;;5119388;29;20035;-69
2023/07/10 10:38:03;;;;;;;3.22;2.78;;;36.20;99.90;;;;;;5201300;28;20328;-69
2023/07/10 10:40:58;;;;;;;3.03;2.65;;;36.30;99.90;;;;;;5184722;28;20051;-72
2023/07/10 10:43:37;;;;;;;3.65;3.10;;;36.80;99.90;;;;;;5168150;28;20027;-69
2023/07/10 10:46:35;;;;;;;3.72;2.65;;;37.40;99.90;;;;;;5100148;29;20507;-69
2023/07/10 10:49:38;;;;;;;4.60;3.50;;;38.50;99.90;;;;;;5108198;29;20035;-69
2023/07/10 10:52:20;;;;;;;3.25;2.38;;;38.50;99.90;;;;;;5141702;28;20036;-71
2023/07/10 10:55:12;;;;;;;5.93;3.03;;;38.60;99.90;;;;;;5227206;28;20462;-69
2023/07/10 10:58:04;;;;;;;3.42;2.72;;;38.70;99.90;;;;;;5208665;28;20021;-69
2023/07/10 11:00:56;;;;;;;2.92;2.63;;;39.60;99.90;;;;;;5204869;28;20523;-71
2023/07/10 11:04:10;;;;;;;2.90;2.50;;;40.00;99.90;;;;;;5197212;28;20050;-68
2023/07/10 11:06:45;;;;;;;5.47;3.00;;;40.90;99.90;;;;;;5182644;28;20033;-71
2023/07/10 11:09:37;;;;;;;3.00;2.53;;;40.20;99.90;;;;;;5166335;28;20038;-68
2023/07/10 11:12:18;;;;;;;4.43;2.63;;;40.40;99.90;;;;;;5149785;28;20029;-70
2023/07/10 11:14:58;;;;;;;3.45;3.15;;;41.10;99.90;;;;;;5165951;28;20034;-71
2023/07/10 11:17:29;;;;;;;3.90;3.00;;;40.40;99.90;;;;;;5182018;28;20409;-69
2023/07/10 11:20:01;;;;;;;3.53;3.05;;;40.10;99.90;;;;;;5183287;28;20025;-69
2023/07/10 11:22:35;;;;;;;4.10;2.95;;;40.70;99.90;;;;;;5182991;28;20091;-69
2023/07/10 11:25:32;;;;;;;3.60;3.20;;;40.10;99.90;;;;;;5182475;28;20072;-69
2023/07/10 11:28:29;;;;;;;3.83;2.63;;;39.50;99.90;;;;;;5166133;28;20038;-72
2023/07/10 11:31:22;;;;;;;3.00;2.70;;;39.30;99.90;;;;;;5184425;28;20037;-69
2023/07/10 11:34:07;;;;;;;3.72;3.35;;;39.10;99.90;;;;;;5154575;28;20035;-71
2023/07/10 11:36:43;;;;;;;3.30;2.60;;;40.20;99.90;;;;;;5169697;28;20054;-68
2023/07/10 11:39:29;;;;;;;3.50;2.92;;;40.40;99.90;;;;;;5187126;28;20352;-69
2023/07/10 11:42:16;;;;;;;3.22;2.95;;;41.30;1.00;;;;;;5169143;28;20028;-70
2023/07/10 11:44:57;;;;;;;3.28;2.90;;;39.80;99.90;;;;;;5205457;28;20044;-71
2023/07/10 11:47:35;;;;;;;4.32;2.60;;;40.20;99.90;;;;;;5208796;28;20026;-70
2023/07/10 11:50:16;;;;;;;2.65;2.45;;;40.20;99.90;;;;;;5170627;28;20043;-70
2023/07/10 11:53:17;;;;;;;3.22;2.92;;;40.90;1.00;;;;;;5121303;29;20046;-70
2023/07/10 11:56:05;;;;;;;3.42;2.90;;;40.70;99.90;;;;;;5104338;29;20522;-70
2023/07/10 11:58:40;;;;;;;3.45;3.15;;;40.20;99.90;;;;;;5160961;28;20362;-69
2023/07/10 12:01:23;;;;;;;3.65;2.70;;;39.80;99.90;;;;;;5193827;28;20540;-71
2023/07/10 12:03:55;;;;;;;3.72;3.10;;;39.50;99.90;;;;;;5125955;28;20046;-71
2023/07/10 12:06:26;;;;;;;3.88;3.13;;;39.70;99.90;;;;;;5120722;29;20237;-69
2023/07/10 12:08:58;;;;;;;3.08;2.78;;;40.00;99.90;;;;;;5110723;29;20040;-69
2023/07/10 12:11:41;;;;;;;3.00;2.65;;;41.10;99.90;;;;;;5102065;29;20038;-70
2023/07/10 12:14:17;;;;;;;4.03;2.90;;;41.90;99.90;;;;;;5203041;28;20037;-69
2023/07/10 12:17:00;;;;;;;3.35;2.60;;;42.30;99.90;;;;;;5186422;28;20045;-70
2023/07/10 12:19:38;;;;;;;3.80;2.87;;;43.40;99.90;;;;;;5203671;28;20033;-70
2023/07/10 12:22:19;;;;;;;2.95;2.70;;;43.60;99.90;;;;;;5196865;28;20031;-70
2023/07/10 12:24:56;;;;;;;4.88;2.97;;;44.40;99.90;;;;;;5207587;28;20033;-69
2023/07/10 12:27:36;;;;;;;4.65;3.53;;;45.10;99.90;;;;;;5187033;28;20037;-71
2023/07/10 12:30:22;;;;;;;4.18;3.10;;;44.30;99.90;;;;;;5184187;28;20076;-70
2023/07/10 12:32:55;;;;;;;3.13;2.65;;;43.40;99.90;;;;;;5204994;28;20333;-69
2023/07/10 12:35:39;;;;;;;5.28;2.80;;;40.30;99.90;;;;;;5205367;28;20037;-69
2023/07/10 12:38:11;;;;;;;4.18;2.95;;;39.80;99.90;;;;;;5101447;29;20035;-71
2023/07/10 12:40:45;;;;;;;3.47;2.53;;;39.80;99.90;;;;;;5115839;29;20035;-69
2023/07/10 12:43:22;;;;;;;3.40;2.70;;;40.60;99.90;;;;;;5103951;28;20037;-71
2023/07/10 12:46:13;;;;;;;3.25;2.88;;;41.70;99.90;;;;;;5107897;28;20386;-70
2023/07/10 12:48:45;;;;;;;3.13;2.80;;;41.00;99.90;;;;;;5134263;28;20031;-71
2023/07/10 12:51:25;;;;;;;3.25;2.63;;;41.70;99.90;;;;;;5119660;29;20529;-69
2023/07/10 12:54:17;;;;;;;3.08;2.58;;;42.20;99.90;;;;;;5201846;28;20029;-69
2023/07/10 12:56:54;;;;;;;3.20;2.38;;;40.40;99.90;;;;;;5209854;28;20456;-71
2023/07/10 12:59:33;;;;;;;4.40;2.72;;;40.50;99.90;;;;;;5224493;28;20032;-69
2023/07/10 13:02:13;;;;;;;6.22;2.75;;;39.40;99.90;;;;;;5215146;28;20029;-70
2023/07/10 13:04:51;;;;;;;2.40;2.20;;;39.40;99.90;;;;;;5205809;28;20047;-70
2023/07/10 13:07:30;;;;;;;3.53;2.92;;;39.40;99.90;;;;;;5222937;28;20055;-70
2023/07/10 13:10:19;;;;;;;3.08;2.10;;;39.40;99.90;;;;;;5224359;28;20092;-69
2023/07/10 13:13:00;;;;;;;2.92;2.30;;;39.70;99.90;;;;;;5224549;28;20406;-69
2023/07/10 13:15:40;;;;;;;2.58;2.38;;;40.80;99.90;;;;;;5223661;28;20027;-70
2023/07/10 13:18:23;;;;;;;3.05;2.60;;;41.40;99.90;;;;;;5224035;28;20023;-69
2023/07/10 13:20:57;;;;;;;3.22;2.63;;;42.10;99.90;;;;;;5224747;28;20032;-70
2023/07/10 13:23:33;;;;;;;2.75;2.17;;;42.10;99.90;;;;;;5190406;28;20035;-69
2023/07/10 13:26:19;;;;;;;3.85;2.60;;;42.20;99.90;;;;;;5202011;28;20051;-71
2023/07/10 13:28:55;;;;;;;3.30;2.45;;;42.50;99.90;;;;;;5222479;28;20438;-70
2023/07/10 13:31:32;;;;;;;3.17;2.65;;;42.50;99.90;;;;;;5194143;28;20033;-71
2023/07/10 13:34:07;;;;;;;2.92;2.55;;;42.30;99.90;;;;;;5189346;28;20039;-69
2023/07/10 13:36:39;;;;;;;2.65;2.45;;;42.20;99.90;;;;;;5220597;28;20478;-70
2023/07/10 13:39:16;;;;;;;2.83;2.00;;;42.10;99.90;;;;;;5129763;28;20066;-69
2023/07/10 13:41:53;;;;;;;2.50;2.30;;;40.80;99.90;;;;;;5189446;28;20361;-69
2023/07/10 13:44:29;;;;;;;4.07;2.45;;;40.80;99.90;;;;;;5223925;28;20033;-68
2023/07/10 13:47:11;;;;;;;2.60;2.40;;;40.00;99.90;;;;;;5204432;28;20044;-70
2023/07/10 13:49:43;;;;;;;3.95;2.47;;;38.80;99.90;;;;;;5222347;28;20031;-70